• Join FlightAware (Why Join?)
  • Login
  • US Flag 
12:40PM EDT


 

Airport Tracker/Info


-or-


 

Live Flight TrackerFlight Track Log ✈ AAL1292 ✈ 24-Apr-2013 ✈ KTUL - KDFW

Flight Track Log - Related Links

Times and Time Zones

All times are in EDT time to prevent confusion due to time zone crossing. See the AAL1292 flight status page for this flight to view local times or setup timezone preferences in your user account.

Time Position Orientation Groundspeed Altitude Reporting Facility
EDT Latitude Longitude Course Direction KTS MPH feet Rate Location/Type
01:55PM 36.1950 -95.9100 129° Southeast 166 191 1,700  Level Kansas City Center
01:56PM 36.1769 -95.9692 249° West 222 255 4,100 2,160 Climbing Kansas City Center
01:57PM 36.1453 -95.9700 181° South 250 288 5,100 2,580 Climbing Kansas City Center
01:58PM 35.9640 -95.9730 162° South  Level Estimated
01:58PM 36.0722 -95.9294 156° South 281 323 8,300  Level Kansas City Center
01:59PM 35.9170 -95.8909 125° Southeast  Level FlightAware Approximate
01:59PM 35.9789 -95.8692 152° Southeast 306 352 11,300  Level Kansas City Center
02:00PM 35.8394 -95.9215 158° South  Level Estimated
02:00PM 35.8858 -95.8153 155° Southeast 353 406 13,600  Level Kansas City Center
02:01PM 35.7882 -95.8434 129° Southeast  Level FlightAware Approximate
02:01PM 35.7825 -95.7933 170° South 371 427 14,600  Level Kansas City Center
02:02PM 35.6794 -95.7894 178° South 375 432 15,100 1,500 Climbing Kansas City Center
02:03PM 35.6067 -95.8206 199° South 364 419 17,400 2,460 Climbing Fort Worth Center
02:04PM 35.5047 -95.8403 189° South 364 419 19,500 1,920 Climbing Fort Worth Center
02:05PM 35.4008 -95.8625 190° South 372 428 21,300 1,200 Climbing Fort Worth Center
02:06PM 35.2928 -95.8825 189° South 384 442 22,000 300 Climbing Fort Worth Center
02:07PM 35.1906 -95.9019 189° South 384 442 22,000  Level Fort Worth Center
02:08PM 35.0889 -95.9242 190° South 384 442 22,000  Level Fort Worth Center
02:09PM 34.9867 -95.9436 189° South 384 442 22,000  Level Fort Worth Center
02:10PM 34.8847 -95.9631 189° South 384 442 22,000  Level Fort Worth Center
02:11PM 34.7808 -95.9878 191° South 384 442 22,000  Level Fort Worth Center
02:12PM 34.6789 -96.0069 189° South 384 442 22,000  Level Fort Worth Center
02:13PM 34.5767 -96.0289 190° South 379 436 22,000  Level Fort Worth Center
02:14PM 34.4728 -96.0483 189° South 379 436 22,000  Level Fort Worth Center
02:15PM 34.3686 -96.0725 191° South 374 430 22,000  Level Fort Worth Center
02:16PM 34.2603 -96.0917 188° South 386 444 22,000  Level Fort Worth Center
02:17PM 34.1500 -96.1161 190° South 400 460 22,000  Level Fort Worth Center
02:18PM 34.0417 -96.1378 189° South 406 467 22,000  Level Fort Worth Center
02:19PM 33.9314 -96.1569 188° South 406 467 22,000  Level Fort Worth Center
02:20PM 33.8064 -96.1811 189° South 412 474 22,000  Level Fort Worth Center
02:21PM 33.7067 -96.2350 204° Southwest 405 466 22,000 -720 Level Fort Worth Center
02:22PM 33.6050 -96.2886 204° Southwest 398 458 20,600 -1,800 Descending Fort Worth Center
02:23PM 33.5072 -96.3397 204° Southwest 393 452 18,500 -1,800 Descending Fort Worth Center
02:24PM 33.4219 -96.3881 205° Southwest 365 420 17,000 -1,680 Descending Fort Worth Center
02:25PM 33.3494 -96.4561 218° Southwest 340 391 15,200 -2,100 Descending Fort Worth Center
02:26PM 33.2894 -96.5311 226° Southwest 321 369 12,900 -2,100 Descending Fort Worth Center
02:27PM 33.2275 -96.6014 224° Southwest 311 358 11,000 -960 Descending Fort Worth Center
02:28PM 33.1736 -96.6689 226° Southwest 294 338 11,000  Level Fort Worth Center
02:29PM 33.1197 -96.7314 224° Southwest 276 318 11,000  Level Fort Worth Center
02:29PM 33.0667 -96.7833 219° Southwest 273 314 11,000  Level Dallas / Fort Worth TRACON
02:30PM 33.0167 -96.8500 228° Southwest 257 296 11,000  Level Dallas / Fort Worth TRACON
02:31PM 32.9833 -96.9000 232° Southwest 221 254 11,000 -300 Level Dallas / Fort Worth TRACON
02:32PM 32.9167 -96.9000 180° South 252 290 10,400 -960 Descending Dallas / Fort Worth TRACON
02:34PM 32.8333 -96.9000 180° South 242 278 9,000 -1,380 Descending Dallas / Fort Worth TRACON
02:34PM 32.7833 -96.9000 180° South 221 254 7,700 -1,800 Descending Dallas / Fort Worth TRACON
02:36PM 32.7167 -96.9000 180° South 243 280 5,500 -1,800 Descending Dallas / Fort Worth TRACON
02:37PM 32.6833 -96.9667 239° Southwest 231 266 4,000 -720 Descending Dallas / Fort Worth TRACON
02:38PM 32.7000 -97.0167 292° West 170 196 4,100 60 Climbing Dallas / Fort Worth TRACON